createdAt,value
2023-05-22T00:00:18.892Z,14.43
2023-05-22T00:03:07.093Z,14.40
2023-05-22T00:05:39.187Z,14.39
2023-05-22T00:08:12.031Z,14.35
2023-05-22T00:10:40.663Z,14.32
2023-05-22T00:13:09.503Z,14.31
2023-05-22T00:15:37.778Z,14.28
2023-05-22T00:18:06.697Z,14.23
2023-05-22T00:20:39.444Z,14.16
2023-05-22T00:23:12.167Z,14.07
2023-05-22T00:25:41.526Z,13.99
2023-05-22T00:28:09.901Z,13.92
2023-05-22T00:30:38.594Z,13.87
2023-05-22T00:33:07.243Z,13.83
2023-05-22T00:35:35.672Z,13.79
2023-05-22T00:38:05.877Z,13.76
2023-05-22T00:40:34.355Z,13.73
2023-05-22T00:43:08.817Z,13.67
2023-05-22T00:45:38.169Z,13.62
2023-05-22T00:48:08.423Z,13.55
2023-05-22T00:50:36.784Z,13.51
2023-05-22T00:53:05.249Z,13.46
2023-05-22T00:55:33.525Z,13.41
2023-05-22T00:58:03.468Z,13.35
2023-05-22T01:00:34.583Z,13.28
2023-05-22T01:03:05.912Z,13.20
2023-05-22T01:05:35.130Z,13.14
2023-05-22T01:08:04.253Z,13.09
2023-05-22T01:10:33.459Z,13.01
2023-05-22T01:13:25.338Z,12.93
2023-05-22T01:16:25.553Z,12.85
2023-05-22T01:19:02.922Z,12.77
2023-05-22T01:21:39.525Z,12.68
2023-05-22T01:24:18.544Z,12.63
2023-05-22T01:26:55.013Z,12.55
2023-05-22T01:29:37.535Z,12.48
2023-05-22T01:32:06.205Z,12.42
2023-05-22T01:34:36.660Z,12.36
2023-05-22T01:37:05.574Z,12.31
2023-05-22T01:39:34.204Z,12.22
2023-05-22T01:42:02.684Z,12.14
2023-05-22T01:44:30.968Z,12.07
2023-05-22T01:47:03.839Z,12.01
2023-05-22T01:49:33.766Z,12.02
2023-05-22T01:52:19.135Z,11.95
2023-05-22T01:54:58.870Z,11.89
2023-05-22T01:57:31.376Z,11.82
2023-05-22T02:00:10.087Z,11.77
2023-05-22T02:02:50.370Z,11.70
2023-05-22T02:05:22.700Z,11.65
2023-05-22T02:07:51.183Z,11.61
2023-05-22T02:10:21.085Z,11.57
2023-05-22T02:12:49.564Z,11.52
2023-05-22T02:15:18.452Z,11.48
2023-05-22T02:17:49.822Z,11.44
2023-05-22T02:20:18.192Z,11.38
2023-05-22T02:22:47.697Z,11.35
2023-05-22T02:25:17.588Z,11.30
2023-05-22T02:27:48.122Z,11.25
2023-05-22T02:30:16.621Z,11.22
2023-05-22T02:32:46.476Z,11.21
2023-05-22T02:35:15.048Z,11.16
2023-05-22T02:37:43.275Z,11.11
2023-05-22T02:40:12.573Z,11.04
2023-05-22T02:42:40.844Z,10.98
2023-05-22T02:45:10.002Z,10.96
2023-05-22T02:47:38.409Z,10.93
2023-05-22T02:50:08.235Z,10.92
2023-05-22T02:52:37.356Z,10.93
2023-05-22T02:55:06.211Z,10.92
2023-05-22T02:57:34.482Z,10.87
2023-05-22T03:00:03.976Z,10.81
2023-05-22T03:02:36.968Z,10.78
2023-05-22T03:05:06.475Z,10.79
2023-05-22T03:07:35.217Z,10.76
2023-05-22T03:10:03.852Z,10.74
2023-05-22T03:12:32.322Z,10.74
2023-05-22T03:15:01.733Z,10.74
2023-05-22T03:17:31.238Z,10.75
2023-05-22T03:19:59.422Z,10.79
2023-05-22T03:22:27.777Z,10.78
2023-05-22T03:24:56.153Z,10.77
2023-05-22T03:27:24.427Z,10.78
2023-05-22T03:29:52.922Z,10.80
2023-05-22T03:32:22.543Z,10.86
2023-05-22T03:34:51.198Z,10.91
2023-05-22T03:37:19.472Z,10.91
2023-05-22T03:39:47.852Z,10.94
2023-05-22T03:42:26.786Z,10.98
2023-05-22T03:44:54.946Z,11.02
2023-05-22T03:47:23.500Z,11.04
2023-05-22T03:49:52.122Z,11.06
2023-05-22T03:52:20.470Z,11.09
2023-05-22T03:54:48.762Z,11.15
2023-05-22T03:57:20.210Z,11.20
2023-05-22T03:59:48.485Z,11.24
2023-05-22T04:02:17.952Z,11.29
2023-05-22T04:04:46.752Z,11.34
2023-05-22T04:07:15.252Z,11.38
2023-05-22T04:09:43.427Z,11.42
2023-05-22T04:12:11.598Z,11.49
2023-05-22T04:14:39.871Z,11.56
2023-05-22T04:17:09.067Z,11.60
2023-05-22T04:19:37.443Z,11.66
2023-05-22T04:22:06.026Z,11.71
2023-05-22T04:24:34.309Z,11.75
2023-05-22T04:27:02.787Z,11.79
2023-05-22T04:29:31.266Z,11.85
2023-05-22T04:32:00.464Z,11.88
2023-05-22T04:34:30.596Z,11.92
2023-05-22T04:37:00.382Z,11.94
2023-05-22T04:39:28.557Z,11.97
2023-05-22T04:42:05.894Z,12.02
2023-05-22T04:44:37.190Z,12.10
2023-05-22T04:47:07.783Z,12.20
2023-05-22T04:49:36.607Z,12.30
2023-05-22T04:52:08.525Z,12.40
2023-05-22T04:54:36.869Z,12.48
2023-05-22T04:57:05.734Z,12.58
2023-05-22T04:59:38.204Z,12.68
2023-05-22T05:02:06.586Z,12.81
2023-05-22T05:04:34.902Z,12.93
2023-05-22T05:07:05.202Z,13.03
2023-05-22T05:09:33.975Z,13.12
2023-05-22T05:12:03.672Z,13.22
2023-05-22T05:14:31.947Z,13.31
2023-05-22T05:17:00.363Z,13.42
2023-05-22T05:19:28.891Z,13.52
2023-05-22T05:21:57.180Z,13.63
2023-05-22T05:24:26.481Z,13.73
2023-05-22T05:26:55.264Z,13.82
2023-05-22T05:29:23.545Z,13.90
2023-05-22T05:32:00.106Z,14.00
2023-05-22T05:34:40.981Z,14.10
2023-05-22T05:37:21.645Z,14.20
2023-05-22T05:39:50.792Z,14.30
2023-05-22T05:42:19.118Z,14.41
2023-05-22T05:44:48.828Z,14.52
2023-05-22T05:47:18.030Z,14.64
2023-05-22T05:49:46.296Z,14.76
2023-05-22T05:52:16.418Z,14.86
2023-05-22T05:54:47.605Z,14.96
2023-05-22T05:57:19.781Z,15.06
2023-05-22T05:59:48.764Z,15.18
2023-05-22T06:02:40.504Z,15.31
2023-05-22T06:05:17.880Z,15.43
2023-05-22T06:07:46.522Z,15.54
2023-05-22T06:10:14.715Z,15.66
2023-05-22T06:12:56.784Z,15.80
2023-05-22T06:15:25.167Z,15.96
2023-05-22T06:17:53.894Z,16.08
2023-05-22T06:20:22.655Z,16.16
2023-05-22T06:22:52.142Z,16.26
2023-05-22T06:25:20.726Z,16.39
2023-05-22T06:27:49.609Z,16.46
2023-05-22T06:30:28.357Z,16.57
2023-05-22T06:33:06.524Z,16.71
2023-05-22T06:35:34.849Z,16.81
2023-05-22T06:38:04.225Z,16.92
2023-05-22T06:40:32.589Z,17.05
2023-05-22T06:43:15.811Z,17.18
2023-05-22T06:45:56.954Z,17.29
2023-05-22T06:48:25.265Z,17.39
2023-05-22T06:51:16.583Z,17.49
2023-05-22T06:53:47.208Z,17.59
2023-05-22T06:56:19.287Z,17.67
2023-05-22T06:58:53.185Z,17.74
2023-05-22T07:01:23.530Z,17.80
2023-05-22T07:04:02.640Z,17.90
2023-05-22T07:06:41.976Z,18.01
2023-05-22T07:09:11.556Z,18.14
2023-05-22T07:11:39.951Z,18.26
2023-05-22T07:14:08.937Z,18.39
2023-05-22T07:16:37.516Z,18.51
2023-05-22T07:19:06.831Z,18.65
2023-05-22T07:21:36.245Z,18.78
2023-05-22T07:24:08.573Z,18.90
2023-05-22T07:26:41.475Z,19.03
2023-05-22T07:29:12.205Z,19.15
2023-05-22T07:31:40.734Z,19.29
2023-05-22T07:34:09.676Z,19.39
2023-05-22T07:36:38.359Z,19.47
2023-05-22T07:39:07.143Z,19.60
2023-05-22T07:41:39.209Z,19.75
2023-05-22T07:44:08.204Z,19.86
2023-05-22T07:46:38.469Z,19.91
2023-05-22T07:49:12.738Z,19.97
2023-05-22T07:51:43.466Z,20.08
2023-05-22T07:54:13.701Z,20.19
2023-05-22T07:56:42.987Z,20.31
2023-05-22T07:59:12.488Z,20.40
2023-05-22T08:01:42.212Z,20.47
2023-05-22T08:04:10.589Z,20.56
2023-05-22T08:06:40.176Z,20.66
2023-05-22T08:09:08.348Z,20.74
2023-05-22T08:11:39.711Z,20.83
2023-05-22T08:14:08.176Z,20.96
2023-05-22T08:16:36.570Z,21.05
2023-05-22T08:19:07.383Z,21.16
2023-05-22T08:21:36.177Z,21.29
2023-05-22T08:24:04.666Z,21.45
2023-05-22T08:26:34.161Z,21.56
2023-05-22T08:29:02.841Z,21.65
2023-05-22T08:31:31.242Z,21.79
2023-05-22T08:34:02.947Z,21.95
2023-05-22T08:36:34.230Z,22.05
2023-05-22T08:39:02.697Z,22.14
2023-05-22T08:41:30.868Z,22.23
2023-05-22T08:43:59.251Z,22.31
2023-05-22T08:46:30.274Z,22.41
2023-05-22T08:48:59.280Z,22.44
2023-05-22T08:51:29.410Z,22.50
2023-05-22T08:53:57.975Z,22.57
2023-05-22T08:56:28.545Z,22.63
2023-05-22T08:58:58.928Z,22.70
2023-05-22T09:01:28.931Z,22.82
2023-05-22T09:04:02.095Z,22.93
2023-05-22T09:06:30.622Z,23.08
2023-05-22T09:09:03.503Z,23.21
2023-05-22T09:11:31.775Z,23.33
2023-05-22T09:14:10.222Z,23.41
2023-05-22T09:16:48.847Z,23.49
2023-05-22T09:19:17.355Z,23.62
2023-05-22T09:21:46.301Z,23.78
2023-05-22T09:24:14.759Z,23.98
2023-05-22T09:26:42.929Z,24.13
2023-05-22T09:29:11.237Z,24.21
2023-05-22T09:31:44.036Z,24.35
2023-05-22T09:34:16.007Z,24.52
2023-05-22T09:36:44.286Z,24.65
2023-05-22T09:39:12.502Z,24.71
2023-05-22T09:41:40.782Z,24.68
2023-05-22T09:44:15.625Z,24.69
2023-05-22T09:46:47.783Z,24.66
2023-05-22T09:49:17.497Z,24.60
2023-05-22T09:51:49.506Z,24.56
2023-05-22T09:54:19.968Z,24.55
2023-05-22T09:56:50.327Z,24.62
2023-05-22T09:59:26.974Z,24.78
2023-05-22T10:01:55.969Z,24.94
2023-05-22T10:04:24.597Z,25.07
2023-05-22T10:06:57.922Z,25.21
2023-05-22T10:09:31.209Z,25.39
2023-05-22T10:12:04.551Z,25.56
2023-05-22T10:14:35.343Z,25.77
2023-05-22T10:17:06.954Z,26.04
2023-05-22T10:19:38.697Z,26.27
2023-05-22T10:22:11.842Z,26.47
2023-05-22T10:24:40.323Z,26.65
2023-05-22T10:27:08.597Z,26.88
2023-05-22T10:29:43.345Z,27.13
2023-05-22T10:32:22.284Z,27.34
2023-05-22T10:34:56.678Z,27.62
2023-05-22T10:37:57.196Z,27.88
2023-05-22T10:40:29.409Z,28.13
2023-05-22T10:43:03.067Z,28.24
2023-05-22T10:45:32.169Z,28.36
2023-05-22T10:48:08.367Z,28.51
2023-05-22T10:50:36.937Z,28.65
2023-05-22T10:53:26.387Z,28.82
2023-05-22T10:55:57.004Z,29.08
2023-05-22T10:58:30.298Z,29.35
2023-05-22T11:01:15.013Z,29.43
2023-05-22T11:04:13.673Z,29.49
2023-05-22T11:07:04.627Z,29.51
2023-05-22T11:09:48.440Z,29.53
2023-05-22T11:12:31.230Z,29.59
2023-05-22T11:15:08.382Z,29.43
2023-05-22T11:17:39.831Z,29.44
2023-05-22T11:20:10.612Z,29.55
2023-05-22T11:22:44.133Z,29.33
2023-05-22T11:25:16.948Z,29.16
2023-05-22T11:27:45.731Z,29.10
2023-05-22T11:30:15.441Z,29.06
2023-05-22T11:32:45.425Z,29.01
2023-05-22T11:35:22.844Z,28.98
2023-05-22T11:37:53.593Z,29.14
2023-05-22T11:40:26.364Z,29.28
2023-05-22T11:42:55.250Z,29.32
2023-05-22T11:45:23.918Z,29.38
2023-05-22T11:47:52.320Z,29.54
2023-05-22T11:50:33.580Z,29.50
2023-05-22T11:53:09.191Z,29.65
2023-05-22T11:55:37.716Z,29.92
2023-05-22T11:58:05.990Z,30.18
2023-05-22T12:00:34.374Z,30.50
2023-05-22T12:03:02.796Z,30.68
2023-05-22T12:05:32.673Z,30.86
2023-05-22T12:08:01.107Z,31.10
2023-05-22T12:10:29.409Z,31.38
2023-05-22T12:12:57.891Z,31.55
2023-05-22T12:15:27.328Z,31.64
2023-05-22T12:17:56.734Z,31.52
2023-05-22T12:20:30.839Z,31.51
2023-05-22T12:23:00.065Z,31.68
2023-05-22T12:25:36.073Z,31.74
2023-05-22T12:28:06.536Z,31.72
2023-05-22T12:30:42.064Z,31.91
2023-05-22T12:33:15.324Z,32.11
2023-05-22T12:35:43.787Z,32.34
2023-05-22T12:38:13.778Z,32.59
2023-05-22T12:40:42.904Z,32.91
2023-05-22T12:43:11.285Z,33.29
2023-05-22T12:45:42.626Z,33.42
2023-05-22T12:48:12.205Z,33.58
2023-05-22T12:50:41.318Z,33.52
2023-05-22T12:53:09.806Z,33.53
2023-05-22T12:55:39.229Z,33.35
2023-05-22T12:58:07.900Z,33.06
2023-05-22T13:00:36.368Z,32.82
2023-05-22T13:03:05.905Z,32.56
2023-05-22T13:05:34.582Z,32.32
2023-05-22T13:08:02.837Z,32.09
2023-05-22T13:10:31.207Z,32.10
2023-05-22T13:12:59.481Z,32.21
2023-05-22T13:15:29.802Z,32.40
2023-05-22T13:17:58.124Z,32.39
2023-05-22T13:20:26.561Z,32.33
2023-05-22T13:22:55.241Z,32.40
2023-05-22T13:25:23.411Z,32.58
2023-05-22T13:27:51.692Z,32.75
2023-05-22T13:30:20.170Z,32.86
2023-05-22T13:32:48.497Z,32.91
2023-05-22T13:35:16.924Z,32.83
2023-05-22T13:37:45.208Z,32.80
2023-05-22T13:40:13.576Z,32.73
2023-05-22T13:42:42.062Z,32.75
2023-05-22T13:45:10.840Z,32.91
2023-05-22T13:47:39.063Z,33.16
2023-05-22T13:50:08.392Z,33.33
2023-05-22T13:52:36.797Z,33.41
2023-05-22T13:55:06.094Z,33.24
2023-05-22T13:57:34.577Z,33.10
2023-05-22T14:00:03.871Z,33.09
2023-05-22T14:02:51.272Z,33.10
2023-05-22T14:05:19.975Z,33.17
2023-05-22T14:07:48.358Z,33.29
2023-05-22T14:10:17.967Z,33.37
2023-05-22T14:12:46.542Z,33.38
2023-05-22T14:15:16.376Z,33.39
2023-05-22T14:17:44.700Z,33.37
2023-05-22T14:20:13.112Z,33.30
2023-05-22T14:22:55.723Z,33.22
2023-05-22T14:25:26.549Z,33.06
2023-05-22T14:27:54.841Z,32.81
2023-05-22T14:30:23.201Z,32.54
2023-05-22T14:32:51.809Z,32.33
2023-05-22T14:35:20.367Z,32.20
2023-05-22T14:37:48.538Z,32.03
2023-05-22T14:40:17.014Z,31.83
2023-05-22T14:42:45.953Z,31.56
2023-05-22T14:45:14.193Z,31.48
2023-05-22T14:47:43.526Z,31.55
2023-05-22T14:50:19.238Z,31.90
2023-05-22T14:52:51.517Z,32.32
2023-05-22T14:55:21.315Z,32.46
2023-05-22T14:57:49.801Z,32.56
2023-05-22T15:00:18.583Z,32.70
2023-05-22T15:02:46.954Z,32.69
2023-05-22T15:05:15.912Z,32.53
2023-05-22T15:07:46.103Z,32.32
2023-05-22T15:10:15.776Z,32.05
2023-05-22T15:12:44.154Z,31.81
2023-05-22T15:15:12.435Z,31.53
2023-05-22T15:17:42.624Z,31.11
2023-05-22T15:20:11.787Z,30.75
2023-05-22T15:22:40.629Z,30.41
2023-05-22T15:25:12.198Z,29.93
2023-05-22T15:27:41.375Z,29.58
2023-05-22T15:30:10.176Z,29.40
2023-05-22T15:32:39.190Z,29.20
2023-05-22T15:35:09.194Z,28.95
2023-05-22T15:37:37.447Z,28.58
2023-05-22T15:40:06.434Z,28.33
2023-05-22T15:42:34.615Z,27.87
2023-05-22T15:45:02.982Z,27.51
2023-05-22T15:47:31.397Z,27.20
2023-05-22T15:50:00.272Z,27.07
2023-05-22T15:52:28.534Z,26.90
2023-05-22T15:54:57.338Z,26.77
2023-05-22T15:57:28.607Z,26.58
2023-05-22T15:59:57.036Z,26.39
2023-05-22T16:02:25.828Z,26.18
2023-05-22T16:04:54.314Z,26.04
2023-05-22T16:07:22.680Z,25.96
2023-05-22T16:09:50.955Z,25.89
2023-05-22T16:12:19.360Z,25.79
2023-05-22T16:14:47.961Z,25.64
2023-05-22T16:17:16.289Z,25.56
2023-05-22T16:19:44.567Z,25.48
2023-05-22T16:22:12.838Z,25.38
2023-05-22T16:24:41.318Z,25.33
2023-05-22T16:27:09.707Z,25.23
2023-05-22T16:29:38.074Z,25.14
2023-05-22T16:32:06.498Z,25.01
2023-05-22T16:34:35.133Z,24.89
2023-05-22T16:37:03.513Z,24.83
2023-05-22T16:39:31.788Z,24.86
2023-05-22T16:42:01.305Z,25.00
2023-05-22T16:44:29.461Z,24.98
2023-05-22T16:46:57.749Z,24.96
2023-05-22T16:49:26.018Z,24.93
2023-05-22T16:51:54.388Z,24.87
2023-05-22T16:54:22.561Z,24.78
2023-05-22T16:56:51.045Z,24.76
2023-05-22T16:59:19.954Z,24.68
2023-05-22T17:01:48.310Z,24.52
2023-05-22T17:04:18.735Z,24.44
2023-05-22T17:06:48.133Z,24.40
2023-05-22T17:09:16.306Z,24.28
2023-05-22T17:11:44.478Z,24.06
2023-05-22T17:14:13.166Z,23.95
2023-05-22T17:16:41.386Z,23.77
2023-05-22T17:19:10.054Z,23.61
2023-05-22T17:21:38.495Z,23.48
2023-05-22T17:24:12.644Z,23.38
2023-05-22T17:26:43.024Z,23.27
2023-05-22T17:29:11.410Z,23.13
2023-05-22T17:31:39.855Z,23.02
2023-05-22T17:34:08.263Z,22.93
2023-05-22T17:36:36.549Z,22.80
2023-05-22T17:39:04.925Z,22.69
2023-05-22T17:41:33.398Z,22.58
2023-05-22T17:44:01.978Z,22.44
2023-05-22T17:46:30.276Z,22.34
2023-05-22T17:48:58.631Z,22.23
2023-05-22T17:51:26.933Z,22.16
2023-05-22T17:53:56.615Z,22.08
2023-05-22T17:56:26.651Z,21.99
2023-05-22T17:58:54.914Z,21.89
2023-05-22T18:01:24.822Z,21.79
2023-05-22T18:03:53.356Z,21.72
2023-05-22T18:06:23.953Z,21.64
2023-05-22T18:08:52.721Z,21.52
2023-05-22T18:11:21.396Z,21.40
2023-05-22T18:13:50.388Z,21.29
2023-05-22T18:16:21.477Z,21.16
2023-05-22T18:18:49.941Z,21.04
2023-05-22T18:21:18.182Z,20.95
2023-05-22T18:23:46.367Z,20.83
2023-05-22T18:26:14.532Z,20.74
2023-05-22T18:28:42.694Z,20.60
2023-05-22T18:31:10.893Z,20.50
2023-05-22T18:33:39.662Z,20.37
2023-05-22T18:36:08.140Z,20.21
2023-05-22T18:38:36.520Z,20.04
2023-05-22T18:41:06.338Z,19.88
2023-05-22T18:43:34.613Z,19.74
2023-05-22T18:46:02.885Z,19.56
2023-05-22T18:48:31.260Z,19.38
2023-05-22T18:51:00.975Z,19.22
2023-05-22T18:53:29.232Z,19.07
2023-05-22T18:55:57.417Z,18.92
2023-05-22T18:58:25.885Z,18.78
2023-05-22T19:00:55.969Z,18.63
2023-05-22T19:03:24.589Z,18.51
2023-05-22T19:05:52.860Z,18.40
2023-05-22T19:08:21.234Z,18.28
2023-05-22T19:10:49.411Z,18.18
2023-05-22T19:13:17.794Z,18.08
2023-05-22T19:15:46.711Z,17.96
2023-05-22T19:18:14.968Z,17.85
2023-05-22T19:20:43.126Z,17.72
2023-05-22T19:23:12.528Z,17.58
2023-05-22T19:25:40.900Z,17.45
2023-05-22T19:28:09.089Z,17.32
2023-05-22T19:30:37.529Z,17.19
2023-05-22T19:33:08.561Z,17.06
2023-05-22T19:35:38.001Z,16.92
2023-05-22T19:38:06.577Z,16.80
2023-05-22T19:40:34.864Z,16.65
2023-05-22T19:43:03.331Z,16.51
2023-05-22T19:45:31.713Z,16.37
2023-05-22T19:48:00.367Z,16.23
2023-05-22T19:50:28.875Z,16.10
2023-05-22T19:52:57.249Z,15.95
2023-05-22T19:55:25.934Z,15.83
2023-05-22T19:57:54.208Z,15.71
2023-05-22T20:00:22.996Z,15.59
2023-05-22T20:02:51.460Z,15.49
2023-05-22T20:05:20.081Z,15.39
2023-05-22T20:07:48.887Z,15.29
2023-05-22T20:10:17.425Z,15.19
2023-05-22T20:12:46.212Z,15.09
2023-05-22T20:15:15.398Z,15.01
2023-05-22T20:17:48.027Z,14.92
2023-05-22T20:20:16.466Z,14.83
2023-05-22T20:22:45.158Z,14.75
2023-05-22T20:25:13.935Z,14.66
2023-05-22T20:27:42.219Z,14.58
2023-05-22T20:30:12.753Z,14.51
2023-05-22T20:32:42.846Z,14.41
2023-05-22T20:35:13.891Z,14.31
2023-05-22T20:37:42.182Z,14.22
2023-05-22T20:40:11.040Z,14.15
2023-05-22T20:42:41.094Z,14.08
2023-05-22T20:45:14.628Z,14.01
2023-05-22T20:47:44.175Z,13.96
2023-05-22T20:50:12.684Z,13.90
2023-05-22T20:52:41.030Z,13.86
2023-05-22T20:55:09.819Z,13.79
2023-05-22T20:57:38.098Z,13.73
2023-05-22T21:00:11.262Z,13.68
2023-05-22T21:02:39.595Z,13.64
2023-05-22T21:05:08.776Z,13.57
2023-05-22T21:07:37.232Z,13.52
2023-05-22T21:10:06.223Z,13.45
2023-05-22T21:12:34.500Z,13.41
2023-05-22T21:15:02.775Z,13.36
2023-05-22T21:17:30.968Z,13.31
2023-05-22T21:19:59.118Z,13.25
2023-05-22T21:22:27.287Z,13.21
2023-05-22T21:24:55.985Z,13.17
2023-05-22T21:27:24.257Z,13.13
2023-05-22T21:29:52.450Z,13.08
2023-05-22T21:32:20.704Z,13.02
2023-05-22T21:34:48.876Z,12.96
2023-05-22T21:37:17.146Z,12.91
2023-05-22T21:39:45.418Z,12.86
2023-05-22T21:44:44.136Z,12.80
2023-05-22T21:47:12.710Z,12.77
2023-05-22T21:49:41.487Z,12.76
2023-05-22T21:52:09.760Z,12.74
2023-05-22T21:54:38.141Z,12.71
2023-05-22T21:57:06.618Z,12.68
2023-05-22T21:59:34.854Z,12.66
2023-05-22T22:02:03.322Z,12.61
2023-05-22T22:04:31.546Z,12.58
2023-05-22T22:06:59.919Z,12.54
2023-05-22T22:09:28.190Z,12.51
2023-05-22T22:11:56.693Z,12.46
2023-05-22T22:14:25.050Z,12.43
2023-05-22T22:16:54.686Z,12.39
2023-05-22T22:19:23.768Z,12.33
2023-05-22T22:21:52.432Z,12.27
2023-05-22T22:24:20.810Z,12.23
2023-05-22T22:26:49.593Z,12.18
2023-05-22T22:29:17.876Z,12.14
2023-05-22T22:31:46.505Z,12.13
2023-05-22T22:34:15.037Z,12.09
2023-05-22T22:36:43.527Z,12.04
2023-05-22T22:39:11.997Z,12.01
2023-05-22T22:41:40.274Z,11.97
2023-05-22T22:44:08.453Z,11.94
2023-05-22T22:46:36.969Z,11.91
2023-05-22T22:49:05.301Z,11.89
2023-05-22T22:51:34.843Z,11.85
2023-05-22T22:54:03.710Z,11.82
2023-05-22T22:56:32.277Z,11.79
2023-05-22T22:59:00.667Z,11.78
2023-05-22T23:01:29.100Z,11.74
2023-05-22T23:03:57.572Z,11.69
2023-05-22T23:06:29.786Z,11.66
2023-05-22T23:08:59.078Z,11.63
2023-05-22T23:11:28.377Z,11.61
2023-05-22T23:13:56.853Z,11.56
2023-05-22T23:16:26.080Z,11.52
2023-05-22T23:18:54.481Z,11.50
2023-05-22T23:21:22.798Z,11.45
2023-05-22T23:23:51.003Z,11.43
2023-05-22T23:26:19.146Z,11.41
2023-05-22T23:28:47.427Z,11.37
2023-05-22T23:31:16.451Z,11.35
2023-05-22T23:33:44.791Z,11.35
2023-05-22T23:36:12.860Z,11.33
2023-05-22T23:38:41.032Z,11.29
2023-05-22T23:41:09.216Z,11.25
2023-05-22T23:43:37.284Z,11.19
2023-05-22T23:46:05.445Z,11.15
2023-05-22T23:48:33.519Z,11.10
2023-05-22T23:51:02.924Z,11.06
2023-05-22T23:53:30.984Z,11.03
2023-05-22T23:55:59.157Z,11.00
2023-05-22T23:58:29.688Z,10.96
